»·PEaware :: SWA472 KLAS-KSNA

SWA472 :: KLAS-KSNA

FLIGHT INFORMATION

Flight Status: Arrived
Operator:
Southwest Airlines
More flights by this operator :: More flights under this callsign
Pilot: Michael C. (16705)
Aircraft: BOEING 737-800
(B738)
More flights by this aircraft type
Origin: KLAS McCarran Intl
United States
Destination: KSNA John Wayne-Orange Co
United States
More flights between these airports :: More routes between these airports
Route: +BOACH8 WHIGG FEYLA DSNEE1
File this flight plan on PilotEdge
Remarks: PBN / A1B1C1D1L1O1S1 NAV / RNVD1E2A1 DOF / 171204 REG / N838NN RVR / 200 PER / C
Altitude:
(Current/Filed)
320ft
Speed:
(Current/Filed)
464kts
Departed: 04-Dec-17 11:08 AM
Arrived: 04-Dec-17 11:54 AM
Distance/Time
Traveled:
197nm/0:45
Distance/Time
To Go:
Arrived

Flight Plot

Page will automatically refresh every two minutes.

Flight plan parsing failed; only flown route is shown


Map Options




Map Legend


Flown Route
Filed Route
Departure Airport
Arrival Airport
Navaid (VOR, NDB)
Fix

Horizontal Profiles

Position Reports

Time Latitude Longitude Heading Altitude Ground
Speed
04-Dec-17 10:32 36.079846 -115.147153 54 2189ft 0kts
04-Dec-17 10:33 36.079846 -115.147153 54 2189ft 0kts
04-Dec-17 10:34 36.079846 -115.147153 54 2189ft 0kts
04-Dec-17 10:35 36.079846 -115.147153 54 2189ft 0kts
04-Dec-17 10:36 36.079846 -115.147153 54 2189ft 0kts
04-Dec-17 10:37 36.079846 -115.147153 54 2189ft 0kts
04-Dec-17 10:38 36.079846 -115.147153 54 2189ft 0kts
04-Dec-17 10:39 36.079846 -115.147153 54 2189ft 0kts
04-Dec-17 10:40 36.079846 -115.147153 54 2189ft 0kts
04-Dec-17 10:41 36.079846 -115.147153 54 2189ft 0kts
04-Dec-17 10:42 36.079846 -115.147153 54 2189ft 0kts
04-Dec-17 10:43 36.079846 -115.147153 54 2189ft 0kts
04-Dec-17 10:44 36.079846 -115.147153 54 2189ft 0kts
04-Dec-17 10:45 36.079846 -115.147153 54 2189ft 0kts
04-Dec-17 10:46 36.079846 -115.147153 54 2189ft 0kts
04-Dec-17 10:47 36.079846 -115.147153 54 2189ft 0kts
04-Dec-17 10:48 36.079846 -115.147153 54 2189ft 0kts
04-Dec-17 10:49 36.079846 -115.147153 54 2189ft 0kts
04-Dec-17 10:50 36.079846 -115.147153 54 2189ft 0kts
04-Dec-17 10:51 36.079846 -115.147153 54 2189ft 0kts
04-Dec-17 10:52 36.079846 -115.147153 54 2189ft 0kts
04-Dec-17 10:53 36.079846 -115.147153 54 2189ft 0kts
04-Dec-17 10:54 36.079846 -115.147153 54 2189ft 0kts
04-Dec-17 10:55 36.079846 -115.147153 54 2189ft 0kts
04-Dec-17 10:56 36.079846 -115.147153 54 2189ft 0kts
04-Dec-17 10:57 36.079750 -115.147321 54 2189ft 2kts
04-Dec-17 10:58 36.079442 -115.147864 54 2189ft 0kts
04-Dec-17 10:59 36.079442 -115.147864 54 2189ft 0kts
04-Dec-17 11:00 36.079442 -115.147864 54 2189ft 0kts
04-Dec-17 11:01 36.079407 -115.147639 133 2189ft 0kts
04-Dec-17 11:02 36.079406 -115.147638 133 2189ft 0kts
04-Dec-17 11:03 36.079405 -115.147636 133 2189ft 0kts
04-Dec-17 11:04 36.078141 -115.147437 215 2189ft 11kts
04-Dec-17 11:05 36.078045 -115.152028 270 2189ft 13kts
04-Dec-17 11:06 36.078010 -115.155481 270 2189ft 16kts
04-Dec-17 11:07 36.078006 -115.160792 268 2189ft 12kts
04-Dec-17 11:08 36.076714 -115.163807 204 2189ft 16kts
04-Dec-17 11:09 36.073929 -115.166248 286 2189ft 0kts
04-Dec-17 11:10 36.073931 -115.166253 286 2189ft 0kts
04-Dec-17 11:11 36.073931 -115.166255 286 2189ft 0kts
04-Dec-17 11:12 36.073931 -115.166256 286 2189ft 0kts
04-Dec-17 11:13 36.079227 -115.164784 26 2189ft 93kts
04-Dec-17 11:14 36.110466 -115.144782 8 4050ft 161kts
04-Dec-17 11:15 36.130782 -115.198199 254 5937ft 253kts
04-Dec-17 11:16 36.105299 -115.281012 227 9372ft 269kts
04-Dec-17 11:17 36.036986 -115.323067 202 10203ft 283kts
04-Dec-17 11:18 35.960673 -115.359641 204 10515ft 311kts
04-Dec-17 11:19 35.867473 -115.370718 166 12842ft 376kts
04-Dec-17 11:20 35.766106 -115.328848 167 15997ft 389kts
04-Dec-17 11:21 35.663328 -115.320820 214 18835ft 363kts
04-Dec-17 11:22 35.592991 -115.406235 233 21543ft 357kts
04-Dec-17 11:23 35.526615 -115.498206 232 23908ft 363kts
04-Dec-17 11:24 35.458200 -115.590846 233 25911ft 370kts
04-Dec-17 11:25 35.388422 -115.685414 234 27640ft 376kts
04-Dec-17 11:26 35.317417 -115.780521 235 29367ft 376kts
04-Dec-17 11:27 35.247732 -115.873410 235 31347ft 367kts
04-Dec-17 11:28 35.177202 -115.964045 235 32228ft 369kts
04-Dec-17 11:29 35.106419 -116.053021 235 32234ft 364kts
04-Dec-17 11:30 35.035759 -116.142246 235 32235ft 364kts
04-Dec-17 11:31 34.965183 -116.230657 235 32219ft 364kts
04-Dec-17 11:32 34.894090 -116.319449 235 31220ft 369kts
04-Dec-17 11:33 34.822856 -116.410230 235 29508ft 367kts
04-Dec-17 11:34 34.753741 -116.498056 234 27347ft 353kts
04-Dec-17 11:35 34.688033 -116.580131 229 26164ft 326kts
04-Dec-17 11:36 34.614845 -116.652023 225 24362ft 336kts
04-Dec-17 11:37 34.545145 -116.719684 226 24205ft 298kts
04-Dec-17 11:38 34.480375 -116.785994 229 21442ft 315kts
04-Dec-17 11:39 34.418485 -116.859003 229 18888ft 306kts
04-Dec-17 11:40 34.357555 -116.929706 228 16390ft 301kts
04-Dec-17 11:41 34.296923 -116.999619 228 15510ft 293kts
04-Dec-17 11:42 34.234749 -117.057268 216 14388ft 284kts
04-Dec-17 11:43 34.166198 -117.105788 212 13031ft 285kts
04-Dec-17 11:44 34.095422 -117.143626 208 12620ft 275kts
04-Dec-17 11:45 34.024577 -117.181174 208 12208ft 278kts
04-Dec-17 11:46 33.966829 -117.237330 232 11374ft 259kts
04-Dec-17 11:47 33.920718 -117.302472 232 10363ft 249kts
04-Dec-17 11:48 33.877373 -117.363764 230 9365ft 231kts
04-Dec-17 11:49 33.837109 -117.420537 230 8462ft 214kts
04-Dec-17 11:50 33.806968 -117.481008 249 7473ft 211kts
04-Dec-17 11:51 33.798715 -117.549496 271 6598ft 204kts
04-Dec-17 11:52 33.801086 -117.617478 284 6019ft 193kts
04-Dec-17 11:53 33.828449 -117.673894 301 5695ft 200kts
04-Dec-17 11:54 33.856934 -117.729791 288 4654ft 192kts
04-Dec-17 11:55 33.823832 -117.775130 207 3555ft 198kts
04-Dec-17 11:56 33.774544 -117.806131 207 2084ft 198kts
04-Dec-17 11:57 33.729998 -117.834408 208 1133ft 160kts
04-Dec-17 11:58 33.693937 -117.857281 208 342ft 138kts
04-Dec-17 11:59 33.670379 -117.872078 197 64ft 17kts
04-Dec-17 12:00 33.669288 -117.871801 133 64ft 0kts
04-Dec-17 12:01 33.669904 -117.870111 40 64ft 10kts
04-Dec-17 12:02 33.671900 -117.868257 30 64ft 8kts
04-Dec-17 12:03 33.673613 -117.866857 16 64ft 10kts
04-Dec-17 12:04 33.675780 -117.864798 123 64ft 5kts
04-Dec-17 12:05 33.675703 -117.864642 119 64ft 0kts
04-Dec-17 12:06 33.675703 -117.864642 119 64ft 0kts
04-Dec-17 12:07 33.675703 -117.864642 119 64ft 0kts
04-Dec-17 12:08 33.675703 -117.864642 119 64ft 0kts
04-Dec-17 12:09 33.675703 -117.864642 119 64ft 0kts
04-Dec-17 12:10 33.675703 -117.864642 119 64ft 0kts
04-Dec-17 12:11 33.675703 -117.864642 119 64ft 0kts

Navigation Log

Ident Type
Flight plan parsing failed, navigation log unavailable